createdAt,value
2018-06-05T00:00:20.810Z,38.20
2018-06-05T00:00:54.150Z,37.70
2018-06-05T00:01:27.821Z,42.93
2018-06-05T00:02:01.384Z,40.43
2018-06-05T00:02:34.943Z,43.60
2018-06-05T00:03:08.464Z,41.58
2018-06-05T00:03:41.800Z,43.23
2018-06-05T00:04:15.363Z,39.55
2018-06-05T00:04:48.406Z,40.07
2018-06-05T00:05:21.994Z,37.45
2018-06-05T00:05:55.306Z,41.53
2018-06-05T00:06:28.917Z,44.93
2018-06-05T00:07:02.208Z,45.00
2018-06-05T00:07:35.493Z,45.20
2018-06-05T00:08:08.801Z,43.63
2018-06-05T00:08:42.461Z,42.83
2018-06-05T00:09:15.868Z,42.30
2018-06-05T00:09:49.454Z,46.25
2018-06-05T00:10:22.790Z,38.10
2018-06-05T00:10:56.089Z,37.53
2018-06-05T00:11:29.663Z,42.23
2018-06-05T00:12:03.001Z,43.77
2018-06-05T00:12:36.312Z,46.00
2018-06-05T00:13:09.365Z,42.93
2018-06-05T00:13:42.692Z,47.13
2018-06-05T00:14:16.047Z,44.43
2018-06-05T00:14:49.329Z,50.47
2018-06-05T00:15:22.644Z,45.73
2018-06-05T00:15:55.962Z,38.60
2018-06-05T00:16:29.578Z,42.47
2018-06-05T00:17:02.858Z,45.23
2018-06-05T00:17:36.160Z,39.90
2018-06-05T00:18:09.810Z,43.70
2018-06-05T00:18:43.113Z,42.07
2018-06-05T00:19:16.496Z,50.47
2018-06-05T00:19:49.814Z,44.13
2018-06-05T00:20:23.463Z,46.13
2018-06-05T00:20:56.768Z,42.50
2018-06-05T00:21:30.075Z,49.87
2018-06-05T00:22:03.395Z,42.87
2018-06-05T00:22:36.712Z,44.80
2018-06-05T00:23:10.103Z,39.50
2018-06-05T00:23:44.841Z,43.37
2018-06-05T00:24:18.131Z,44.87
2018-06-05T00:24:51.409Z,47.40
2018-06-05T00:25:24.747Z,50.80
2018-06-05T00:25:58.053Z,49.77
2018-06-05T00:26:31.438Z,49.50
2018-06-05T00:27:05.143Z,43.37
2018-06-05T00:27:38.446Z,46.87
2018-06-05T00:28:11.761Z,46.87
2018-06-05T00:28:45.059Z,49.77
2018-06-05T00:29:18.357Z,52.27
2018-06-05T00:29:51.633Z,39.17
2018-06-05T00:30:24.931Z,50.50
2018-06-05T00:30:58.280Z,43.43
2018-06-05T00:31:31.559Z,48.83
2018-06-05T00:32:04.857Z,47.87
2018-06-05T00:32:38.145Z,46.60
2018-06-05T00:33:11.514Z,42.23
2018-06-05T00:33:44.801Z,50.53
2018-06-05T00:34:18.785Z,47.58
2018-06-05T00:34:52.105Z,46.97
2018-06-05T00:35:25.427Z,46.40
2018-06-05T00:35:58.687Z,50.07
2018-06-05T00:36:32.003Z,52.50
2018-06-05T00:37:05.290Z,55.43
2018-06-05T00:37:38.573Z,46.07
2018-06-05T00:38:12.186Z,45.28
2018-06-05T00:38:45.531Z,48.33
2018-06-05T00:39:18.959Z,43.23
2018-06-05T00:39:52.241Z,47.33
2018-06-05T00:40:25.631Z,47.50
2018-06-05T00:40:59.559Z,48.28
2018-06-05T00:41:33.119Z,51.77
2018-06-05T00:42:06.681Z,48.38
2018-06-05T00:42:39.981Z,45.93
2018-06-05T00:43:13.561Z,55.83
2018-06-05T00:43:46.869Z,60.20
2018-06-05T00:44:20.195Z,47.40
2018-06-05T00:44:53.483Z,47.10
2018-06-05T00:45:27.036Z,47.58
2018-06-05T00:46:00.313Z,43.87
2018-06-05T00:46:33.557Z,46.00
2018-06-05T00:47:07.205Z,61.47
2018-06-05T00:47:40.756Z,46.10
2018-06-05T00:48:14.049Z,46.03
2018-06-05T00:48:47.594Z,42.93
2018-06-05T00:49:21.501Z,50.43
2018-06-05T00:49:55.099Z,50.25
2018-06-05T00:50:28.711Z,47.95
2018-06-05T00:51:08.751Z,45.45
2018-06-05T00:51:53.911Z,48.65
2018-06-05T00:52:27.516Z,44.95
2018-06-05T00:53:01.103Z,45.03
2018-06-05T00:53:34.705Z,46.53
2018-06-05T00:54:08.277Z,47.30
2018-06-05T00:54:41.926Z,51.30
2018-06-05T00:55:15.997Z,45.92
2018-06-05T00:55:49.566Z,49.60
2018-06-05T00:56:23.541Z,49.00
2018-06-05T00:56:56.855Z,43.20
2018-06-05T00:57:30.159Z,46.00
2018-06-05T00:58:03.731Z,44.00
2018-06-05T00:58:37.053Z,42.70
2018-06-05T00:59:10.641Z,42.20
2018-06-05T00:59:44.305Z,48.83
2018-06-05T01:00:17.621Z,50.23
2018-06-05T01:00:50.883Z,50.53
2018-06-05T01:01:24.160Z,49.07
2018-06-05T01:01:57.523Z,51.03
2018-06-05T01:02:30.848Z,47.03
2018-06-05T01:03:04.787Z,58.77
2018-06-05T01:03:38.414Z,49.57
2018-06-05T01:04:11.687Z,44.70
2018-06-05T01:04:44.969Z,55.03
2018-06-05T01:05:18.283Z,55.23
2018-06-05T01:05:51.586Z,47.17
2018-06-05T01:06:24.873Z,46.03
2018-06-05T01:06:58.204Z,45.70
2018-06-05T01:07:32.209Z,53.05
2018-06-05T01:08:05.801Z,46.02
2018-06-05T01:08:39.369Z,54.27
2018-06-05T01:09:12.845Z,49.13
2018-06-05T01:09:46.257Z,45.97
2018-06-05T01:10:19.563Z,48.80
2018-06-05T01:10:52.878Z,45.50
2018-06-05T01:11:26.795Z,60.25
2018-06-05T01:12:00.331Z,51.53
2018-06-05T01:12:33.605Z,52.50
2018-06-05T01:13:06.893Z,47.23
2018-06-05T01:13:40.192Z,50.13
2018-06-05T01:14:13.773Z,49.80
2018-06-05T01:14:46.906Z,49.10
2018-06-05T01:15:20.725Z,51.45
2018-06-05T01:15:54.077Z,43.37
2018-06-05T01:16:27.351Z,47.00
2018-06-05T01:17:02.547Z,55.67
2018-06-05T01:17:36.437Z,48.92
2018-06-05T01:18:10.016Z,47.53
2018-06-05T01:18:43.552Z,45.17
2018-06-05T01:19:17.425Z,42.35
2018-06-05T01:19:51.065Z,45.70
2018-06-05T01:20:24.600Z,45.12
2018-06-05T01:20:57.935Z,43.73
2018-06-05T01:21:31.487Z,49.05
2018-06-05T01:22:05.022Z,44.95
2018-06-05T01:22:38.569Z,43.98
2018-06-05T01:23:12.176Z,47.00
2018-06-05T01:23:45.461Z,47.80
2018-06-05T01:24:18.741Z,42.67
2018-06-05T01:24:52.295Z,48.08
2018-06-05T01:25:25.567Z,46.03
2018-06-05T01:25:58.845Z,50.70
2018-06-05T01:26:32.446Z,44.90
2018-06-05T01:27:05.725Z,49.60
2018-06-05T01:27:39.279Z,48.95
2018-06-05T01:28:12.588Z,42.70
2018-06-05T01:28:46.137Z,50.08
2018-06-05T01:29:19.435Z,51.70
2018-06-05T01:29:53.034Z,52.53
2018-06-05T01:30:26.575Z,46.45
2018-06-05T01:31:00.493Z,48.87
2018-06-05T01:31:34.051Z,42.13
2018-06-05T01:32:07.355Z,44.23
2018-06-05T01:32:40.919Z,46.58
2018-06-05T01:33:14.464Z,46.77
2018-06-05T01:33:48.367Z,46.10
2018-06-05T01:34:21.957Z,41.23
2018-06-05T01:34:55.527Z,50.75
2018-06-05T01:35:28.816Z,51.70
2018-06-05T01:36:02.389Z,51.00
2018-06-05T01:36:35.663Z,45.47
2018-06-05T01:37:09.261Z,45.73
2018-06-05T01:37:42.851Z,49.93
2018-06-05T01:38:16.427Z,49.90
2018-06-05T01:38:50.038Z,49.63
2018-06-05T01:39:23.585Z,45.60
2018-06-05T01:39:57.168Z,49.03
2018-06-05T01:40:30.722Z,44.05
2018-06-05T01:41:04.310Z,50.50
2018-06-05T01:41:38.098Z,48.53
2018-06-05T01:42:11.743Z,50.85
2018-06-05T01:42:45.433Z,45.12
2018-06-05T01:43:19.023Z,52.65
2018-06-05T01:43:52.595Z,45.60
2018-06-05T01:44:26.137Z,55.25
2018-06-05T01:44:59.751Z,50.35
2018-06-05T01:45:33.289Z,48.00
2018-06-05T01:46:06.646Z,45.83
2018-06-05T01:46:40.181Z,48.52
2018-06-05T01:47:13.731Z,53.50
2018-06-05T01:47:47.379Z,43.47
2018-06-05T01:48:20.936Z,56.83
2018-06-05T01:48:54.559Z,51.45
2018-06-05T01:49:33.540Z,55.63
2018-06-05T01:50:07.130Z,51.45
2018-06-05T01:50:40.649Z,54.53
2018-06-05T01:51:14.235Z,46.83
2018-06-05T01:51:47.514Z,48.77
2018-06-05T01:52:21.073Z,44.18
2018-06-05T01:52:54.382Z,55.70
2018-06-05T01:53:27.970Z,49.45
2018-06-05T01:54:01.300Z,46.13
2018-06-05T01:54:34.822Z,54.40
2018-06-05T01:55:08.398Z,58.15
2018-06-05T01:55:41.945Z,51.88
2018-06-05T01:56:15.243Z,48.00
2018-06-05T01:56:48.808Z,47.20
2018-06-05T01:57:22.328Z,46.75
2018-06-05T01:57:55.867Z,53.85
2018-06-05T01:58:29.417Z,54.77
2018-06-05T01:59:02.716Z,52.43
2018-06-05T01:59:35.998Z,52.90
2018-06-05T02:00:09.586Z,45.20
2018-06-05T02:00:43.132Z,50.00
2018-06-05T02:01:16.436Z,51.27
2018-06-05T02:01:49.971Z,47.65
2018-06-05T02:02:23.235Z,46.47
2018-06-05T02:02:56.785Z,51.80
2018-06-05T02:03:30.538Z,53.95
2018-06-05T02:04:04.085Z,47.08
2018-06-05T02:04:37.402Z,53.90
2018-06-05T02:05:10.989Z,52.35
2018-06-05T02:05:44.532Z,49.15
2018-06-05T02:06:18.086Z,48.78
2018-06-05T02:06:51.630Z,43.80
2018-06-05T02:07:24.967Z,49.70
2018-06-05T02:07:58.537Z,53.23
2018-06-05T02:08:32.102Z,39.13
2018-06-05T02:09:06.206Z,60.20
2018-06-05T02:09:39.766Z,50.52
2018-06-05T02:10:13.336Z,50.63
2018-06-05T02:10:46.942Z,49.77
2018-06-05T02:11:20.246Z,48.20
2018-06-05T02:11:53.834Z,48.55
2018-06-05T02:12:27.384Z,51.05
2018-06-05T02:13:00.940Z,52.00
2018-06-05T02:13:34.492Z,53.08
2018-06-05T02:14:07.790Z,45.63
2018-06-05T02:14:41.119Z,52.13
2018-06-05T02:15:14.438Z,61.23
2018-06-05T02:15:47.716Z,48.53
2018-06-05T02:16:21.326Z,50.30
2018-06-05T02:16:54.892Z,44.93
2018-06-05T02:17:28.428Z,52.65
2018-06-05T02:18:01.990Z,51.00
2018-06-05T02:18:35.530Z,44.40
2018-06-05T02:19:09.085Z,47.13
2018-06-05T02:19:42.646Z,45.05
2018-06-05T02:20:16.240Z,49.50
2018-06-05T02:20:50.850Z,50.55
2018-06-05T02:21:24.410Z,55.52
2018-06-05T02:21:57.968Z,49.58
2018-06-05T02:22:31.556Z,46.23
2018-06-05T02:23:05.144Z,47.08
2018-06-05T02:23:38.434Z,47.60
2018-06-05T02:24:11.731Z,47.07
2018-06-05T02:24:45.017Z,54.77
2018-06-05T02:25:18.376Z,44.40
2018-06-05T02:25:51.706Z,48.13
2018-06-05T02:26:25.262Z,37.08
2018-06-05T02:26:58.561Z,48.03
2018-06-05T02:27:31.848Z,46.33
2018-06-05T02:28:05.126Z,45.70
2018-06-05T02:28:38.659Z,41.45
2018-06-05T02:29:12.248Z,45.78
2018-06-05T02:29:45.834Z,51.33
2018-06-05T02:30:19.785Z,46.45
2018-06-05T02:30:53.369Z,54.40
2018-06-05T02:31:27.071Z,44.50
2018-06-05T02:32:00.703Z,46.23
2018-06-05T02:32:34.291Z,51.77
2018-06-05T02:33:07.820Z,45.85
2018-06-05T02:33:41.100Z,45.17
2018-06-05T02:34:14.418Z,48.07
2018-06-05T02:34:48.173Z,43.63
2018-06-05T02:35:21.732Z,44.77
2018-06-05T02:35:55.272Z,42.60
2018-06-05T02:36:28.805Z,45.88
2018-06-05T02:37:02.081Z,49.33
2018-06-05T02:37:35.569Z,46.97
2018-06-05T02:38:09.160Z,38.55
2018-06-05T02:38:42.450Z,42.03
2018-06-05T02:39:15.739Z,46.53
2018-06-05T02:39:49.006Z,44.13
2018-06-05T02:40:22.546Z,37.70
2018-06-05T02:40:56.078Z,39.45
2018-06-05T02:41:29.599Z,41.73
2018-06-05T02:42:02.886Z,41.85
2018-06-05T02:42:36.438Z,49.05
2018-06-05T02:43:09.715Z,45.83
2018-06-05T02:43:42.999Z,40.37
2018-06-05T02:44:16.558Z,43.83
2018-06-05T02:44:49.822Z,49.50
2018-06-05T02:45:23.157Z,37.77
2018-06-05T02:45:56.716Z,44.42
2018-06-05T02:46:30.005Z,48.40
2018-06-05T02:47:03.562Z,41.25
2018-06-05T02:47:36.860Z,43.30
2018-06-05T02:48:10.148Z,42.97
2018-06-05T02:48:43.712Z,40.40
2018-06-05T02:49:16.990Z,46.13
2018-06-05T02:49:50.294Z,46.03
2018-06-05T02:50:23.608Z,47.50
2018-06-05T02:50:57.148Z,38.92
2018-06-05T02:51:30.466Z,40.30
2018-06-05T02:52:03.954Z,47.27
2018-06-05T02:52:37.507Z,41.98
2018-06-05T02:53:10.896Z,43.80
2018-06-05T02:53:44.428Z,37.05
2018-06-05T02:54:17.944Z,46.95
2018-06-05T02:54:51.218Z,48.17
2018-06-05T02:55:24.542Z,40.97
2018-06-05T02:55:57.835Z,45.17
2018-06-05T02:56:31.383Z,40.25
2018-06-05T02:57:05.477Z,39.93
2018-06-05T02:57:52.230Z,36.20
2018-06-05T02:58:25.610Z,44.23
2018-06-05T02:58:58.890Z,42.63
2018-06-05T02:59:32.469Z,47.30
2018-06-05T03:00:06.120Z,41.65
2018-06-05T03:00:39.770Z,48.30
2018-06-05T03:01:13.322Z,42.88
2018-06-05T03:01:46.605Z,47.97
2018-06-05T03:02:20.196Z,50.78
2018-06-05T03:02:53.752Z,51.48
2018-06-05T03:03:27.288Z,47.13
2018-06-05T03:04:00.572Z,44.57
2018-06-05T03:04:34.144Z,41.00
2018-06-05T03:05:07.691Z,36.40
2018-06-05T03:05:41.310Z,45.70
2018-06-05T03:06:14.974Z,42.33
2018-06-05T03:06:48.274Z,43.97
2018-06-05T03:07:21.889Z,49.43
2018-06-05T03:07:55.179Z,45.10
2018-06-05T03:08:28.754Z,50.45
2018-06-05T03:09:02.067Z,37.07
2018-06-05T03:09:35.693Z,46.37
2018-06-05T03:10:09.019Z,47.70
2018-06-05T03:10:42.760Z,51.02
2018-06-05T03:11:16.878Z,51.67
2018-06-05T03:11:50.466Z,43.63
2018-06-05T03:12:23.746Z,38.97
2018-06-05T03:12:57.041Z,45.80
2018-06-05T03:13:30.357Z,52.97
2018-06-05T03:14:03.689Z,53.60
2018-06-05T03:14:37.253Z,53.90
2018-06-05T03:15:10.541Z,43.20
2018-06-05T03:15:43.854Z,54.07
2018-06-05T03:16:17.263Z,42.20
2018-06-05T03:16:50.934Z,50.37
2018-06-05T03:17:24.582Z,53.90
2018-06-05T03:17:58.156Z,47.93
2018-06-05T03:18:31.727Z,45.73
2018-06-05T03:19:05.741Z,48.13
2018-06-05T03:19:39.016Z,43.57
2018-06-05T03:20:12.636Z,40.28
2018-06-05T03:20:46.232Z,46.58
2018-06-05T03:21:19.778Z,53.40
2018-06-05T03:21:53.036Z,45.60
2018-06-05T03:22:26.320Z,47.13
2018-06-05T03:22:59.640Z,42.23
2018-06-05T03:23:32.932Z,64.70
2018-06-05T03:24:06.203Z,50.07
2018-06-05T03:24:39.477Z,46.03
2018-06-05T03:25:13.096Z,45.10
2018-06-05T03:25:46.421Z,43.60
2018-06-05T03:26:20.036Z,48.77
2018-06-05T03:26:53.278Z,39.17
2018-06-05T03:27:26.536Z,52.07
2018-06-05T03:27:59.828Z,50.53
2018-06-05T03:28:33.434Z,51.37
2018-06-05T03:29:06.678Z,49.00
2018-06-05T03:29:39.961Z,59.17
2018-06-05T03:30:13.239Z,53.10
2018-06-05T03:30:46.723Z,43.17
2018-06-05T03:31:19.986Z,55.13
2018-06-05T03:31:53.250Z,51.77
2018-06-05T03:32:26.513Z,48.20
2018-06-05T03:32:59.835Z,46.83
2018-06-05T03:33:33.171Z,52.23
2018-06-05T03:34:06.524Z,42.77
2018-06-05T03:34:39.978Z,46.20
2018-06-05T03:35:13.206Z,53.70
2018-06-05T03:35:46.537Z,50.13
2018-06-05T03:36:20.182Z,42.43
2018-06-05T03:36:53.486Z,54.30
2018-06-05T03:37:26.795Z,50.03
2018-06-05T03:38:00.256Z,47.37
2018-06-05T03:38:33.534Z,48.47
2018-06-05T03:39:07.361Z,62.20
2018-06-05T03:39:41.273Z,44.27
2018-06-05T03:40:14.574Z,38.40
2018-06-05T03:40:48.264Z,46.73
2018-06-05T03:41:21.598Z,53.83
2018-06-05T03:41:54.875Z,40.97
2018-06-05T03:42:28.457Z,42.95
2018-06-05T03:43:02.044Z,43.17
2018-06-05T03:43:35.337Z,43.60
2018-06-05T03:44:08.633Z,44.80
2018-06-05T03:44:41.945Z,42.80
2018-06-05T03:45:15.501Z,45.67
2018-06-05T03:45:48.834Z,53.37
2018-06-05T03:46:22.145Z,41.30
2018-06-05T03:46:55.448Z,47.13
2018-06-05T03:47:28.745Z,46.73
2018-06-05T03:48:02.039Z,41.53
2018-06-05T03:48:35.666Z,44.23
2018-06-05T03:49:08.947Z,37.80
2018-06-05T03:49:42.704Z,47.13
2018-06-05T03:50:16.046Z,37.47
2018-06-05T03:50:49.356Z,50.43
2018-06-05T03:51:22.639Z,40.37
2018-06-05T03:51:55.941Z,33.97
2018-06-05T03:52:29.530Z,41.10
2018-06-05T03:53:02.829Z,42.60
2018-06-05T03:53:36.216Z,40.20
2018-06-05T03:54:09.493Z,42.90
2018-06-05T03:54:42.808Z,53.47
2018-06-05T03:55:16.126Z,42.00
2018-06-05T03:55:49.483Z,33.00
2018-06-05T03:56:22.788Z,48.87
2018-06-05T03:56:56.106Z,49.27
2018-06-05T03:57:29.719Z,43.40
2018-06-05T03:58:03.035Z,46.23
2018-06-05T03:58:36.347Z,45.10
2018-06-05T03:59:09.640Z,46.83
2018-06-05T03:59:42.937Z,42.53
2018-06-05T04:00:16.499Z,45.63
2018-06-05T04:00:49.934Z,42.23
2018-06-05T04:01:23.285Z,40.40
2018-06-05T04:01:56.545Z,42.53
2018-06-05T04:02:29.832Z,40.30
2018-06-05T04:03:03.185Z,36.93
2018-06-05T04:03:36.514Z,41.53
2018-06-05T04:04:09.802Z,41.70
2018-06-05T04:04:43.081Z,42.90
2018-06-05T04:05:16.715Z,39.03
2018-06-05T04:05:50.632Z,46.68
2018-06-05T04:06:23.898Z,35.93
2018-06-05T04:06:57.193Z,40.20
2018-06-05T04:07:30.764Z,35.00
2018-06-05T04:08:04.051Z,40.20
2018-06-05T04:08:37.346Z,57.47
2018-06-05T04:09:10.645Z,37.43
2018-06-05T04:09:43.944Z,41.77
2018-06-05T04:10:17.252Z,44.90
2018-06-05T04:10:50.626Z,42.10
2018-06-05T04:11:23.980Z,46.00
2018-06-05T04:11:57.509Z,40.53
2018-06-05T04:12:30.923Z,41.87
2018-06-05T04:13:04.568Z,43.03
2018-06-05T04:13:37.846Z,32.47
2018-06-05T04:14:11.121Z,40.67
2018-06-05T04:14:44.399Z,45.80
2018-06-05T04:15:17.675Z,29.97
2018-06-05T04:15:50.973Z,41.23
2018-06-05T04:16:24.517Z,37.10
2018-06-05T04:16:57.777Z,36.40
2018-06-05T04:17:31.068Z,41.90
2018-06-05T04:18:04.365Z,38.13
2018-06-05T04:18:37.615Z,34.33
2018-06-05T04:19:10.888Z,35.80
2018-06-05T04:19:44.165Z,38.17
2018-06-05T04:20:17.410Z,38.40
2018-06-05T04:20:50.497Z,32.73
2018-06-05T04:21:23.790Z,35.00
2018-06-05T04:21:57.082Z,41.13
2018-06-05T04:22:30.337Z,41.93
2018-06-05T04:23:03.629Z,31.90
2018-06-05T04:23:36.932Z,37.00
2018-06-05T04:24:10.223Z,32.73
2018-06-05T04:24:43.529Z,48.17
2018-06-05T04:25:16.840Z,33.00
2018-06-05T04:25:50.147Z,36.13
2018-06-05T04:26:23.469Z,39.13
2018-06-05T04:26:56.767Z,49.83
2018-06-05T04:27:30.089Z,36.90
2018-06-05T04:28:03.347Z,35.97
2018-06-05T04:28:36.595Z,39.97
2018-06-05T04:29:09.931Z,37.00
2018-06-05T04:29:43.209Z,35.00
2018-06-05T04:30:16.517Z,36.87
2018-06-05T04:30:49.871Z,37.00
2018-06-05T04:31:23.245Z,32.13
2018-06-05T04:31:56.553Z,31.00
2018-06-05T04:32:29.858Z,32.20
2018-06-05T04:33:03.469Z,33.50
2018-06-05T04:33:36.772Z,32.77
2018-06-05T04:34:10.081Z,45.47
2018-06-05T04:34:43.391Z,35.17
2018-06-05T04:35:16.675Z,52.20
2018-06-05T04:35:49.991Z,36.63
2018-06-05T04:36:23.681Z,37.17
2018-06-05T04:36:57.000Z,36.37
2018-06-05T04:37:30.297Z,43.03
2018-06-05T04:38:03.933Z,29.13
2018-06-05T04:38:37.501Z,30.35
2018-06-05T04:39:10.775Z,36.27
2018-06-05T04:39:44.118Z,42.20
2018-06-05T04:40:17.501Z,27.40
2018-06-05T04:40:50.776Z,46.27
2018-06-05T04:41:24.099Z,33.37
2018-06-05T04:41:57.361Z,39.67
2018-06-05T04:42:30.657Z,32.60
2018-06-05T04:43:03.952Z,35.27
2018-06-05T04:43:37.243Z,40.03
2018-06-05T04:44:10.739Z,32.77
2018-06-05T04:44:44.089Z,28.07
2018-06-05T04:45:17.391Z,33.77
2018-06-05T04:45:50.481Z,31.80
2018-06-05T04:46:23.523Z,46.83
2018-06-05T04:46:56.938Z,35.07
2018-06-05T04:47:30.580Z,36.90
2018-06-05T04:48:03.900Z,36.70
2018-06-05T04:48:37.214Z,29.77
2018-06-05T04:49:10.500Z,31.07
2018-06-05T04:49:43.801Z,29.80
2018-06-05T04:50:17.149Z,29.70
2018-06-05T04:50:50.447Z,37.77
2018-06-05T04:51:24.433Z,34.57
2018-06-05T04:51:57.823Z,36.53
2018-06-05T04:52:31.473Z,32.90
2018-06-05T04:53:04.849Z,39.90
2018-06-05T04:53:38.179Z,39.10
2018-06-05T04:54:11.527Z,31.07
2018-06-05T04:54:45.154Z,35.97
2018-06-05T04:55:18.445Z,36.67
2018-06-05T04:55:52.072Z,37.20
2018-06-05T04:56:25.429Z,32.23
2018-06-05T04:56:59.145Z,40.87
2018-06-05T04:57:32.461Z,39.97
2018-06-05T04:58:05.762Z,33.47
2018-06-05T04:58:39.121Z,34.03
2018-06-05T04:59:12.469Z,32.97
2018-06-05T04:59:45.815Z,35.17
2018-06-05T05:00:19.264Z,38.70
2018-06-05T05:00:52.571Z,38.73
2018-06-05T05:01:25.923Z,36.30
2018-06-05T05:01:59.309Z,34.37
2018-06-05T05:02:32.601Z,43.10
2018-06-05T05:03:05.933Z,37.10
2018-06-05T05:03:39.267Z,40.83
2018-06-05T05:04:12.597Z,41.87
2018-06-05T05:04:45.689Z,32.83
2018-06-05T05:05:19.011Z,36.23
2018-06-05T05:05:52.351Z,35.50
2018-06-05T05:06:25.649Z,32.03
2018-06-05T05:06:58.985Z,31.40
2018-06-05T05:07:32.313Z,37.10
2018-06-05T05:08:05.762Z,30.33
2018-06-05T05:08:39.059Z,40.00
2018-06-05T05:09:12.357Z,31.77
2018-06-05T05:09:45.659Z,31.80
2018-06-05T05:10:18.919Z,40.77
2018-06-05T05:10:52.230Z,29.60
2018-06-05T05:11:25.543Z,31.67
2018-06-05T05:11:58.889Z,43.83
2018-06-05T05:12:32.164Z,36.83
2018-06-05T05:13:05.493Z,36.90
2018-06-05T05:13:38.803Z,31.73
2018-06-05T05:14:12.065Z,35.57
2018-06-05T05:14:45.131Z,34.90
2018-06-05T05:15:18.455Z,31.73
2018-06-05T05:15:51.737Z,38.23
2018-06-05T05:16:25.065Z,34.80
2018-06-05T05:16:58.887Z,32.37
2018-06-05T05:17:32.213Z,43.00
2018-06-05T05:18:05.543Z,31.83
2018-06-05T05:18:38.953Z,28.70
2018-06-05T05:19:12.591Z,30.47
2018-06-05T05:19:45.934Z,38.13
2018-06-05T05:20:19.253Z,26.33
2018-06-05T05:20:52.897Z,38.50
2018-06-05T05:21:26.197Z,34.23
2018-06-05T05:21:59.501Z,35.03
2018-06-05T05:22:32.837Z,31.63
2018-06-05T05:23:06.143Z,36.93
2018-06-05T05:23:39.467Z,37.23
2018-06-05T05:24:12.763Z,36.73
2018-06-05T05:24:46.086Z,33.43
2018-06-05T05:25:19.447Z,35.07
2018-06-05T05:25:53.063Z,29.70
2018-06-05T05:26:26.361Z,33.43
2018-06-05T05:26:59.693Z,35.30
2018-06-05T05:27:33.003Z,25.07
2018-06-05T05:28:06.323Z,37.73
2018-06-05T05:28:39.658Z,35.90
2018-06-05T05:29:13.295Z,30.87
2018-06-05T05:29:46.709Z,22.40
2018-06-05T05:30:20.142Z,33.70
2018-06-05T05:30:53.714Z,31.60
2018-06-05T05:31:27.284Z,31.87
2018-06-05T05:32:00.671Z,33.63
2018-06-05T05:32:34.043Z,32.57
2018-06-05T05:33:07.357Z,40.13
2018-06-05T05:33:40.641Z,30.80
2018-06-05T05:34:13.923Z,27.30
2018-06-05T05:34:47.231Z,35.93
2018-06-05T05:35:20.541Z,39.07
2018-06-05T05:35:53.887Z,29.90
2018-06-05T05:36:27.311Z,40.27
2018-06-05T05:37:00.595Z,33.83
2018-06-05T05:37:33.909Z,28.60
2018-06-05T05:38:07.268Z,34.23
2018-06-05T05:38:40.561Z,29.87
2018-06-05T05:39:13.897Z,36.53
2018-06-05T05:39:47.413Z,39.97
2018-06-05T05:40:20.717Z,35.47
2018-06-05T05:40:54.774Z,34.57
2018-06-05T05:41:28.057Z,42.70
2018-06-05T05:42:01.353Z,29.00
2018-06-05T05:42:34.703Z,34.60
2018-06-05T05:43:08.275Z,33.57
2018-06-05T05:43:41.533Z,30.73
2018-06-05T05:44:14.699Z,31.03
2018-06-05T05:44:47.977Z,39.90
2018-06-05T05:45:21.277Z,34.07
2018-06-05T05:45:54.605Z,30.87
2018-06-05T05:46:27.965Z,35.40
2018-06-05T05:47:01.286Z,34.23
2018-06-05T05:47:34.762Z,30.13
2018-06-05T05:48:08.106Z,26.07
2018-06-05T05:48:41.737Z,27.97
2018-06-05T05:49:15.039Z,29.10
2018-06-05T05:49:48.329Z,26.00
2018-06-05T05:50:21.633Z,38.03
2018-06-05T05:50:55.255Z,32.30
2018-06-05T05:51:28.773Z,26.83
2018-06-05T05:52:02.085Z,32.67
2018-06-05T05:52:35.367Z,38.70
2018-06-05T05:53:08.671Z,30.63
2018-06-05T05:53:41.953Z,31.13
2018-06-05T05:54:15.281Z,34.20
2018-06-05T05:54:48.589Z,40.80
2018-06-05T05:55:21.872Z,32.50
2018-06-05T05:55:55.186Z,38.60
2018-06-05T05:56:29.073Z,34.33
2018-06-05T05:57:02.348Z,33.50
2018-06-05T05:57:35.739Z,34.77
2018-06-05T05:58:09.042Z,33.13
2018-06-05T05:58:42.369Z,36.20
2018-06-05T05:59:16.016Z,28.37
2018-06-05T05:59:49.656Z,37.43
2018-06-05T06:00:22.937Z,36.60
2018-06-05T06:00:56.626Z,28.13
2018-06-05T06:01:29.924Z,29.80
2018-06-05T06:02:03.243Z,29.50
2018-06-05T06:02:36.572Z,30.80
2018-06-05T06:03:10.260Z,29.37
2018-06-05T06:03:43.630Z,21.80
2018-06-05T06:04:17.144Z,28.10
2018-06-05T06:04:50.769Z,27.47
2018-06-05T06:05:24.147Z,37.63
2018-06-05T06:05:57.512Z,33.20
2018-06-05T06:06:30.806Z,23.80
2018-06-05T06:07:04.132Z,29.90
2018-06-05T06:07:37.563Z,31.20
2018-06-05T06:08:10.873Z,26.43
2018-06-05T06:08:44.201Z,29.03
2018-06-05T06:09:17.478Z,27.00
2018-06-05T06:09:51.232Z,27.50
2018-06-05T06:10:24.541Z,29.80
2018-06-05T06:10:57.909Z,33.13
2018-06-05T06:11:31.377Z,25.07
2018-06-05T06:12:04.680Z,28.20
2018-06-05T06:12:38.016Z,32.70
2018-06-05T06:13:11.372Z,32.53
2018-06-05T06:13:44.699Z,23.47
2018-06-05T06:14:18.018Z,26.63
2018-06-05T06:14:51.315Z,24.13
2018-06-05T06:15:24.621Z,25.60
2018-06-05T06:15:57.906Z,29.07
2018-06-05T06:16:31.846Z,27.90
2018-06-05T06:17:05.236Z,28.63
2018-06-05T06:17:38.876Z,27.67
2018-06-05T06:18:12.172Z,22.30
2018-06-05T06:18:45.812Z,24.63
2018-06-05T06:19:19.076Z,19.50
2018-06-05T06:19:52.354Z,18.60
2018-06-05T06:20:25.875Z,25.07
2018-06-05T06:20:59.278Z,33.27
2018-06-05T06:21:32.546Z,20.60
2018-06-05T06:22:05.836Z,24.63
2018-06-05T06:22:39.114Z,23.03
2018-06-05T06:23:12.774Z,20.63
2018-06-05T06:23:46.074Z,24.13
2018-06-05T06:24:19.960Z,29.50
2018-06-05T06:24:53.246Z,22.23
2018-06-05T06:25:26.544Z,18.83
2018-06-05T06:25:59.880Z,29.83
2018-06-05T06:26:33.340Z,19.40
2018-06-05T06:27:06.669Z,27.17
2018-06-05T06:27:39.978Z,24.03
2018-06-05T06:28:13.296Z,20.50
2018-06-05T06:28:46.566Z,22.60
2018-06-05T06:29:19.874Z,19.90
2018-06-05T06:29:53.173Z,19.13
2018-06-05T06:30:26.485Z,25.27
2018-06-05T06:30:59.786Z,24.33
2018-06-05T06:31:33.170Z,27.53
2018-06-05T06:32:06.496Z,29.33
2018-06-05T06:32:39.781Z,22.50
2018-06-05T06:33:13.118Z,27.20
2018-06-05T06:33:46.448Z,22.57
2018-06-05T06:34:19.742Z,27.37
2018-06-05T06:34:53.106Z,23.67
2018-06-05T06:35:26.764Z,30.97
2018-06-05T06:36:00.052Z,18.40
2018-06-05T06:36:33.374Z,26.47
2018-06-05T06:37:07.008Z,24.80
2018-06-05T06:37:40.329Z,22.97
2018-06-05T06:38:13.636Z,19.00
2018-06-05T06:38:46.961Z,19.57
2018-06-05T06:39:20.240Z,18.03
2018-06-05T06:39:53.538Z,23.17
2018-06-05T06:40:26.881Z,23.63
2018-06-05T06:41:00.154Z,17.80
2018-06-05T06:41:33.439Z,23.30
2018-06-05T06:42:07.044Z,22.60
2018-06-05T06:42:40.418Z,19.33
2018-06-05T06:43:13.790Z,25.97
2018-06-05T06:43:47.071Z,19.30
2018-06-05T06:44:20.426Z,19.80
2018-06-05T06:44:54.048Z,19.60
2018-06-05T06:45:27.322Z,20.57
2018-06-05T06:46:00.842Z,19.20
2018-06-05T06:46:34.106Z,17.77
2018-06-05T06:47:07.421Z,24.93
2018-06-05T06:47:40.729Z,19.20
2018-06-05T06:48:14.110Z,24.43
2018-06-05T06:48:47.429Z,15.50
2018-06-05T06:49:20.896Z,22.90
2018-06-05T06:49:54.218Z,21.60
2018-06-05T06:50:28.115Z,20.07
2018-06-05T06:51:01.409Z,22.00
2018-06-05T06:51:34.664Z,19.23
2018-06-05T06:52:08.001Z,24.67
2018-06-05T06:52:41.286Z,18.40
2018-06-05T06:53:14.988Z,27.83
2018-06-05T06:53:48.298Z,18.37
2018-06-05T06:54:21.603Z,21.40
2018-06-05T06:54:54.861Z,14.97
2018-06-05T06:55:28.140Z,20.73
2018-06-05T06:56:01.804Z,25.10
2018-06-05T06:56:35.087Z,21.33
2018-06-05T06:57:08.364Z,18.80
2018-06-05T06:57:41.672Z,19.97
2018-06-05T06:58:15.009Z,27.57
2018-06-05T06:58:48.312Z,24.03
2018-06-05T06:59:21.589Z,23.63
2018-06-05T06:59:54.892Z,22.70
2018-06-05T07:00:28.154Z,21.30
2018-06-05T07:01:01.440Z,29.60
2018-06-05T07:01:34.711Z,23.43
2018-06-05T07:02:08.149Z,21.83
2018-06-05T07:02:41.480Z,37.13
2018-06-05T07:03:15.297Z,30.70
2018-06-05T07:03:48.558Z,25.87
2018-06-05T07:04:21.838Z,27.87
2018-06-05T07:04:55.172Z,33.23
2018-06-05T07:05:29.030Z,29.97
2018-06-05T07:06:02.336Z,27.20
2018-06-05T07:06:35.614Z,27.27
2018-06-05T07:07:08.910Z,32.13
2018-06-05T07:07:42.200Z,25.47
2018-06-05T07:08:15.532Z,27.93
2018-06-05T07:08:48.889Z,29.90
2018-06-05T07:09:22.192Z,25.40
2018-06-05T07:09:56.149Z,24.27
2018-06-05T07:10:29.426Z,24.20
2018-06-05T07:11:02.731Z,23.80